Time;durP1;ratioP1;P1;durP2;ratioP2;P2;SDS_P1;SDS_P2;PMS_P1;PMS_P2;Temp;Humidity;BMP_temperature;BMP_pressure;BME280_temperature;BME280_humidity;BME280_pressure;Samples;Min_cycle;Max_cycle;Signal;HPM_P1;HPM_P2
2023/06/13 00:00:51;;;;;;;3.00;2.60;;;;;;;14.18;100.00;97567.72;1703680;75;675302;-71
2023/06/13 00:03:24;;;;;;;4.95;3.50;;;;;;;13.90;100.00;97565.72;1712197;75;672347;-72
2023/06/13 00:05:54;;;;;;;4.10;3.00;;;;;;;13.90;100.00;97564.97;1703247;75;671763;-73
2023/06/13 00:08:25;;;;;;;4.90;3.40;;;;;;;14.04;100.00;97563.97;1710309;75;688901;-73
2023/06/13 00:10:55;;;;;;;2.55;2.35;;;;;;;14.11;100.00;97559.97;1702168;75;678230;-71
2023/06/13 00:13:25;;;;;;;2.70;2.00;;;;;;;14.01;100.00;97559.47;1709115;75;670602;-70
2023/06/13 00:15:58;;;;;;;1.30;1.20;;;;;;;14.02;100.00;97556.22;1701596;75;682757;-72
2023/06/13 00:18:31;;;;;;;1.30;1.20;;;;;;;13.93;100.00;97547.47;1709325;75;676029;-71
2023/06/13 00:21:03;;;;;;;1.60;1.45;;;;;;;13.83;100.00;97546.97;1700802;75;752711;-72
2023/06/13 00:23:33;;;;;;;1.90;1.70;;;;;;;13.71;100.00;97548.97;1708595;75;688395;-73
2023/06/13 00:26:04;;;;;;;2.00;1.50;;;;;;;13.70;100.00;97554.97;1696754;75;1010479;-73
2023/06/13 00:28:34;;;;;;;1.30;1.10;;;;;;;13.56;100.00;97543.69;1709105;75;675978;-72
2023/06/13 00:31:04;;;;;;;1.85;1.10;;;;;;;13.59;100.00;97544.72;1699273;75;801613;-70
2023/06/13 00:33:38;;;;;;;1.45;1.15;;;;;;;13.52;100.00;97548.69;1709409;75;673947;-74
2023/06/13 00:36:09;;;;;;;1.20;1.10;;;;;;;13.40;100.00;97547.94;1687299;75;1744471;-71
2023/06/13 00:38:39;;;;;;;2.40;1.30;;;;;;;13.40;100.00;97549.94;1709891;75;679777;-72
2023/06/13 00:41:10;;;;;;;1.35;1.20;;;;;;;13.35;100.00;97551.41;1700337;75;752896;-71
2023/06/13 00:43:40;;;;;;;1.80;1.20;;;;;;;13.24;100.00;97545.84;1709103;75;671550;-71
2023/06/13 00:46:13;;;;;;;1.40;1.30;;;;;;;13.15;100.00;97552.31;1699171;75;751867;-73
2023/06/13 00:48:48;;;;;;;1.35;1.25;;;;;;;13.11;100.00;97542.84;1709860;75;673591;-73
2023/06/13 00:51:20;;;;;;;1.30;1.10;;;;;;;13.10;100.00;97539.31;1700805;75;755786;-71
2023/06/13 00:53:51;;;;;;;0.90;0.90;;;;;;;13.08;100.00;97539.06;1706591;75;935583;-69
2023/06/13 00:56:23;;;;;;;2.60;2.20;;;;;;;12.52;100.00;97536.09;1699616;75;751911;-73
2023/06/13 00:58:55;;;;;;;3.60;2.90;;;;;;;12.58;100.00;97536.91;1710212;75;672159;-73
2023/06/13 01:01:25;;;;;;;2.85;2.30;;;;;;;12.83;100.00;97532.50;1701311;75;738780;-73
2023/06/13 01:03:59;;;;;;;2.30;1.70;;;;;;;12.64;100.00;97528.66;1712565;75;672667;-72
2023/06/13 01:06:31;;;;;;;3.15;2.45;;;;;;;12.13;100.00;97531.88;1703131;75;739031;-72
2023/06/13 01:09:02;;;;;;;3.30;2.60;;;;;;;12.42;100.00;97532.06;1714302;75;670559;-73
2023/06/13 01:11:41;;;;;;;1.90;1.75;;;;;;;12.47;100.00;97529.34;1596837;67;9763329;-73
2023/06/13 01:14:20;;;;;;;1.90;1.70;;;;;;;12.43;100.00;97523.31;1704608;75;670487;-72
2023/06/13 01:16:56;;;;;;;2.10;1.60;;;;;;;12.25;100.00;97524.47;1710009;75;672433;-71
2023/06/13 01:19:43;;;;;;;1.80;1.50;;;;;;;12.30;100.00;97520.28;1686496;75;1930941;-71
2023/06/13 01:22:19;;;;;;;1.60;1.40;;;;;;;12.38;100.00;97524.03;1700116;75;777903;-73
2023/06/13 01:25:08;;;;;;;1.50;1.00;;;;;;;12.20;100.00;97522.47;1709674;75;675937;-72
2023/06/13 01:27:44;;;;;;;2.05;1.60;;;;;;;12.14;100.00;97525.16;1700364;75;754688;-72
2023/06/13 01:30:17;;;;;;;1.20;1.10;;;;;;;12.20;100.00;97521.72;1701378;75;677312;-72
2023/06/13 01:32:48;;;;;;;1.30;1.15;;;;;;;12.12;100.00;97521.38;1710017;75;675925;-71
2023/06/13 01:35:19;;;;;;;1.20;1.10;;;;;;;12.13;100.00;97525.66;1701448;75;676866;-73
2023/06/13 01:37:50;;;;;;;1.00;0.90;;;;;;;12.07;100.00;97517.38;1708755;75;713043;-73
2023/06/13 01:40:20;;;;;;;1.35;1.25;;;;;;;12.03;100.00;97518.88;1700682;75;677524;-73
2023/06/13 01:42:53;;;;;;;1.60;1.20;;;;;;;11.95;100.00;97502.06;1710092;75;668359;-70
2023/06/13 01:45:25;;;;;;;1.60;1.20;;;;;;;11.91;100.00;97505.06;1699517;75;733407;-72
2023/06/13 01:48:06;;;;;;;1.25;1.15;;;;;;;11.86;100.00;97507.75;1709215;75;677830;-74
2023/06/13 01:50:51;;;;;;;1.15;1.05;;;;;;;11.84;100.00;97502.75;1701822;75;673494;-72
2023/06/13 01:53:33;;;;;;;1.10;1.10;;;;;;;11.73;100.00;97502.66;1701676;75;676058;-72
2023/06/13 01:56:07;;;;;;;1.50;1.40;;;;;;;11.71;100.00;97500.41;1709869;75;672495;-71
2023/06/13 01:58:47;;;;;;;0.95;0.90;;;;;;;11.75;100.00;97497.44;1701050;75;688628;-73
2023/06/13 02:01:18;;;;;;;1.25;0.85;;;;;;;11.65;100.00;97496.84;1701357;75;699288;-71
2023/06/13 02:03:48;;;;;;;1.50;1.00;;;;;;;11.65;100.00;97490.63;1709525;75;672175;-71
2023/06/13 02:06:19;;;;;;;1.20;1.10;;;;;;;11.52;100.00;97491.03;1697360;75;983419;-70
2023/06/13 02:08:49;;;;;;;0.80;0.80;;;;;;;11.58;100.00;97491.81;1709370;75;712644;-70
2023/06/13 02:11:19;;;;;;;1.20;1.10;;;;;;;11.60;100.00;97492.09;1701369;75;673429;-74
2023/06/13 02:13:52;;;;;;;1.10;1.00;;;;;;;11.54;100.00;97485.78;1709899;75;677797;-72
2023/06/13 02:16:25;;;;;;;1.20;1.10;;;;;;;11.45;100.00;97484.00;1701099;75;683374;-73
2023/06/13 02:18:55;;;;;;;1.20;1.10;;;;;;;11.37;100.00;97482.91;1710091;75;672244;-71
2023/06/13 02:21:26;;;;;;;0.90;0.90;;;;;;;11.41;100.00;97491.69;1701618;75;676305;-74
2023/06/13 02:23:56;;;;;;;1.10;1.00;;;;;;;11.30;100.00;97484.13;1707528;75;841700;-71
2023/06/13 02:26:28;;;;;;;2.90;1.10;;;;;;;11.24;100.00;97485.28;1701048;75;675151;-71
2023/06/13 02:29:03;;;;;;;1.60;1.20;;;;;;;11.22;100.00;97483.03;1709933;75;673720;-69
2023/06/13 02:31:35;;;;;;;1.35;1.25;;;;;;;11.15;100.00;97479.97;1701275;75;707025;-72
2023/06/13 02:34:05;;;;;;;1.90;1.20;;;;;;;11.18;100.00;97477.00;1709729;75;676750;-72
2023/06/13 02:36:37;;;;;;;2.20;1.30;;;;;;;11.08;100.00;97481.91;1700793;75;675447;-72
2023/06/13 02:39:08;;;;;;;1.25;1.15;;;;;;;11.10;100.00;97484.16;1709908;75;669374;-71
2023/06/13 02:41:38;;;;;;;1.55;1.30;;;;;;;11.01;100.00;97487.06;1701237;75;745288;-72
2023/06/13 02:44:11;;;;;;;1.55;1.00;;;;;;;10.94;100.00;97477.28;1710191;75;673233;-71
2023/06/13 02:46:41;;;;;;;1.30;1.20;;;;;;;11.01;100.00;97478.84;1699711;75;746578;-72
2023/06/13 02:49:12;;;;;;;1.15;1.05;;;;;;;10.93;100.00;97467.56;1709861;75;680618;-71
2023/06/13 02:51:42;;;;;;;2.65;1.00;;;;;;;10.87;100.00;97475.72;1700639;75;751135;-73
2023/06/13 02:54:12;;;;;;;1.20;1.10;;;;;;;10.86;100.00;97474.22;1709333;75;740636;-73
2023/06/13 02:56:42;;;;;;;1.60;1.30;;;;;;;10.82;100.00;97481.13;1699873;75;745944;-70
2023/06/13 02:59:15;;;;;;;1.05;0.95;;;;;;;10.85;100.00;97475.47;1709518;75;681220;-75
2023/06/13 03:01:45;;;;;;;0.95;0.90;;;;;;;10.84;100.00;97479.41;1701303;75;745913;-73
2023/06/13 03:04:18;;;;;;;2.45;0.95;;;;;;;10.77;100.00;97479.84;1710111;75;673459;-71
2023/06/13 03:06:49;;;;;;;2.60;1.70;;;;;;;10.65;100.00;97483.69;1700920;75;750056;-71
2023/06/13 03:09:20;;;;;;;2.70;1.90;;;;;;;10.45;100.00;97504.34;1709096;75;679606;-72
2023/06/13 03:11:50;;;;;;;2.40;2.20;;;;;;;10.49;100.00;97498.69;1700901;75;749734;-72
2023/06/13 03:14:23;;;;;;;2.00;1.70;;;;;;;10.64;100.00;97501.34;1709703;75;686085;-73
2023/06/13 03:16:55;;;;;;;1.65;1.55;;;;;;;10.63;100.00;97495.13;1699749;75;749477;-71
2023/06/13 03:19:26;;;;;;;3.00;2.40;;;;;;;10.70;100.00;97512.34;1709671;75;681241;-71
2023/06/13 03:21:56;;;;;;;1.60;1.40;;;;;;;10.76;100.00;97510.44;1700209;75;739388;-71
2023/06/13 03:24:26;;;;;;;1.60;1.50;;;;;;;10.80;100.00;97505.50;1708946;75;680825;-73
2023/06/13 03:26:56;;;;;;;6.60;3.20;;;;;;;10.67;100.00;97500.38;1700696;75;746995;-71
2023/06/13 03:29:30;;;;;;;5.20;2.45;;;;;;;10.91;100.00;97502.16;1709904;75;674003;-72
2023/06/13 03:32:00;;;;;;;3.90;1.90;;;;;;;10.92;100.00;97498.16;1700461;75;766522;-73
2023/06/13 03:34:38;;;;;;;4.60;3.10;;;;;;;10.70;100.00;97504.88;1710088;75;676054;-72
2023/06/13 03:37:09;;;;;;;3.95;2.65;;;;;;;10.88;100.00;97509.34;1700065;75;746913;-71
2023/06/13 03:39:41;;;;;;;5.00;2.90;;;;;;;10.96;100.00;97504.94;1709464;75;678840;-73
2023/06/13 03:42:15;;;;;;;2.80;2.50;;;;;;;11.13;100.00;97507.84;1700405;75;726563;-72
2023/06/13 03:44:49;;;;;;;4.20;2.30;;;;;;;11.13;100.00;97505.09;1709562;75;676024;-73
2023/06/13 03:47:19;;;;;;;4.10;3.45;;;;;;;11.17;100.00;97507.66;1700426;75;753046;-75
2023/06/13 03:49:49;;;;;;;6.20;3.00;;;;;;;11.21;100.00;97514.41;1709630;75;678404;-71
2023/06/13 03:52:20;;;;;;;5.10;2.65;;;;;;;11.44;100.00;97509.13;1700400;75;750394;-72
2023/06/13 03:54:51;;;;;;;2.20;2.00;;;;;;;11.56;100.00;97516.22;1710106;75;673707;-74
2023/06/13 03:57:21;;;;;;;2.30;1.90;;;;;;;11.66;100.00;97511.31;1700698;75;746756;-72
2023/06/13 03:59:55;;;;;;;3.60;2.70;;;;;;;11.72;100.00;97512.88;1709594;75;677620;-71
2023/06/13 04:02:25;;;;;;;2.25;1.85;;;;;;;11.88;100.00;97516.25;1699369;75;815572;-72
2023/06/13 04:04:56;;;;;;;1.80;1.70;;;;;;;11.92;100.00;97525.00;1711105;75;678273;-74
2023/06/13 04:07:26;;;;;;;1.80;1.60;;;;;;;11.93;100.00;97515.56;1699794;75;871939;-71
2023/06/13 04:09:56;;;;;;;3.20;2.70;;;;;;;11.95;100.00;97518.53;1710927;75;672595;-70
2023/06/13 04:12:27;;;;;;;11.55;7.75;;;;;;;12.12;100.00;97524.91;1702246;75;738377;-73
2023/06/13 04:15:00;;;;;;;12.65;6.00;;;;;;;12.23;100.00;97515.97;1710251;75;677870;-73
2023/06/13 04:17:31;;;;;;;4.85;4.25;;;;;;;12.38;100.00;97523.31;1700428;75;765028;-71
2023/06/13 04:20:04;;;;;;;10.10;8.00;;;;;;;12.44;100.00;97519.34;1709558;75;669385;-70
2023/06/13 04:22:35;;;;;;;7.00;4.35;;;;;;;12.42;100.00;97515.59;1701096;75;752666;-72
2023/06/13 04:25:06;;;;;;;6.20;5.50;;;;;;;12.24;100.00;97505.75;1708545;75;679974;-69
2023/06/13 04:27:38;;;;;;;8.20;5.15;;;;;;;12.32;100.00;97513.03;1700193;75;745838;-72
2023/06/13 04:30:14;;;;;;;9.40;4.60;;;;;;;12.42;100.00;97518.34;1708878;75;673326;-72
2023/06/13 04:32:46;;;;;;;4.85;3.75;;;;;;;12.55;100.00;97513.91;1700614;75;743465;-75
2023/06/13 04:35:18;;;;;;;3.30;2.95;;;;;;;12.52;100.00;97525.88;1708797;75;673899;-75
2023/06/13 04:37:49;;;;;;;5.65;3.55;;;;;;;12.62;100.00;97520.16;1699735;75;742428;-72
2023/06/13 04:40:20;;;;;;;6.50;4.15;;;;;;;12.48;100.00;97524.59;1706771;75;896496;-71
2023/06/13 04:42:51;;;;;;;7.45;3.80;;;;;;;12.67;100.00;97535.91;1700503;75;749103;-72
2023/06/13 04:45:24;;;;;;;6.20;3.10;;;;;;;12.86;100.00;97539.00;1709130;75;676130;-72
2023/06/13 04:47:57;;;;;;;3.65;2.85;;;;;;;12.98;100.00;97535.78;1700243;75;746101;-73
2023/06/13 04:50:27;;;;;;;5.20;3.35;;;;;;;13.05;100.00;97531.06;1709476;75;672350;-75
2023/06/13 04:52:57;;;;;;;5.05;2.95;;;;;;;13.12;100.00;97536.84;1701133;75;738533;-75
2023/06/13 04:55:29;;;;;;;6.30;2.90;;;;;;;13.04;100.00;97546.06;1709373;75;682915;-74
2023/06/13 04:57:59;;;;;;;5.35;3.20;;;;;;;13.16;100.00;97553.84;1700061;75;756570;-70
2023/06/13 05:00:32;;;;;;;5.10;3.10;;;;;;;13.26;100.00;97542.63;1709658;75;671404;-70
2023/06/13 05:03:03;;;;;;;3.65;2.80;;;;;;;13.28;100.00;97540.16;1700216;75;742455;-71
2023/06/13 05:05:33;;;;;;;3.50;2.90;;;;;;;13.45;100.00;97535.44;1711235;75;677542;-73
2023/06/13 05:08:03;;;;;;;3.60;2.60;;;;;;;13.63;100.00;97540.44;1702551;75;735865;-70
2023/06/13 05:10:33;;;;;;;2.40;1.80;;;;;;;13.84;100.00;97540.22;1711525;75;700756;-72
2023/06/13 05:13:03;;;;;;;2.30;1.80;;;;;;;13.96;94.76;97538.94;1678775;75;2884365;-70
2023/06/13 05:15:38;;;;;;;1.40;1.30;;;;;;;14.07;97.78;97536.19;1713401;75;671700;-74
2023/06/13 05:18:12;;;;;;;3.20;2.40;;;;;;;14.02;98.16;97539.72;1699509;75;922447;-73
2023/06/13 05:20:43;;;;;;;5.60;4.70;;;;;;;14.15;98.17;97549.44;1709976;75;673608;-71
2023/06/13 05:23:13;;;;;;;3.10;2.75;;;;;;;13.89;100.00;97550.47;1701377;75;733299;-72
2023/06/13 05:25:43;;;;;;;2.10;1.90;;;;;;;14.33;97.64;97559.16;1709288;75;683224;-73
2023/06/13 05:28:13;;;;;;;2.65;1.90;;;;;;;14.48;94.57;97549.38;1700499;75;750758;-74
2023/06/13 05:30:46;;;;;;;2.05;1.50;;;;;;;14.55;91.11;97547.38;1709223;75;679513;-73
2023/06/13 05:33:17;;;;;;;1.35;1.25;;;;;;;14.61;89.04;97542.63;1701215;75;724496;-73
2023/06/13 05:35:47;;;;;;;4.70;1.70;;;;;;;14.69;93.97;97535.31;1708963;75;750117;-72
2023/06/13 05:38:18;;;;;;;1.30;1.20;;;;;;;14.74;93.59;97551.06;1699261;75;757595;-72
2023/06/13 05:40:48;;;;;;;3.10;1.60;;;;;;;14.79;91.76;97550.31;1709065;75;678346;-72
2023/06/13 05:43:19;;;;;;;2.25;1.80;;;;;;;14.76;91.75;97542.31;1686681;75;1850938;-70
2023/06/13 05:45:53;;;;;;;2.80;1.90;;;;;;;14.88;89.19;97544.50;1709697;75;690265;-70
2023/06/13 05:48:23;;;;;;;2.60;1.70;;;;;;;14.74;90.99;97542.81;1700420;75;743144;-71
2023/06/13 05:50:53;;;;;;;4.20;2.25;;;;;;;14.83;88.72;97541.78;1709828;75;679351;-72
2023/06/13 05:53:23;;;;;;;2.50;1.70;;;;;;;14.85;84.38;97547.53;1701580;75;750960;-75
2023/06/13 05:55:53;;;;;;;4.65;2.00;;;;;;;14.88;78.93;97547.25;1709475;75;760833;-70
2023/06/13 05:58:23;;;;;;;5.10;1.60;;;;;;;15.06;78.80;97542.44;1698155;75;890879;-74
2023/06/13 06:00:57;;;;;;;4.45;2.10;;;;;;;14.87;78.03;97543.03;1710409;75;677135;-71
2023/06/13 06:03:28;;;;;;;3.05;1.80;;;;;;;15.08;78.98;97550.94;1700812;75;752298;-70
2023/06/13 06:05:58;;;;;;;2.40;1.70;;;;;;;15.23;78.15;97554.13;1709507;75;681985;-73
2023/06/13 06:08:28;;;;;;;2.70;1.60;;;;;;;15.50;78.12;97554.47;1699307;75;747158;-71
2023/06/13 06:10:59;;;;;;;2.05;1.80;;;;;;;15.67;77.34;97555.09;1709909;75;679769;-73
2023/06/13 06:13:29;;;;;;;2.90;1.30;;;;;;;15.89;75.91;97548.69;1700400;75;745815;-72
2023/06/13 06:16:02;;;;;;;2.35;1.50;;;;;;;16.00;75.02;97553.38;1704893;75;991632;-74
2023/06/13 06:18:32;;;;;;;3.25;1.25;;;;;;;16.10;74.68;97554.53;1700360;75;745252;-73
2023/06/13 06:21:03;;;;;;;2.25;1.65;;;;;;;15.96;71.75;97559.16;1694558;75;1966678;-74
2023/06/13 06:23:33;;;;;;;2.30;1.60;;;;;;;15.80;73.11;97548.25;1698761;75;827680;-75
2023/06/13 06:26:03;;;;;;;3.00;1.60;;;;;;;15.71;72.95;97550.09;1709975;75;674285;-75
2023/06/13 06:28:34;;;;;;;3.00;1.85;;;;;;;15.82;72.31;97565.81;1700886;75;751601;-72
2023/06/13 06:31:08;;;;;;;2.20;1.60;;;;;;;16.02;73.07;97567.41;1709205;75;672785;-74
2023/06/13 06:33:38;;;;;;;2.95;1.30;;;;;;;16.18;72.59;97563.00;1701036;75;744950;-76
2023/06/13 06:36:09;;;;;;;2.00;1.40;;;;;;;16.24;70.35;97568.47;1710256;75;677631;-72
2023/06/13 06:38:40;;;;;;;1.80;1.30;;;;;;;16.40;71.27;97564.78;1697583;75;957673;-73
2023/06/13 06:41:10;;;;;;;2.60;1.30;;;;;;;16.67;72.77;97567.78;1706312;75;985981;-74
2023/06/13 06:43:40;;;;;;;2.95;1.50;;;;;;;16.74;71.43;97570.72;1700729;75;751738;-71
2023/06/13 06:46:13;;;;;;;1.45;1.25;;;;;;;16.96;71.35;97558.69;1709654;75;672604;-72
2023/06/13 06:48:43;;;;;;;3.40;1.30;;;;;;;16.94;70.06;97560.47;1700243;75;745310;-72
2023/06/13 06:51:13;;;;;;;2.50;1.35;;;;;;;17.10;70.27;97556.75;1707172;75;860550;-72
2023/06/13 06:53:44;;;;;;;2.35;1.55;;;;;;;16.94;70.26;97558.47;1699822;75;750693;-74
2023/06/13 06:56:14;;;;;;;1.85;1.55;;;;;;;17.00;69.94;97552.84;1710025;75;669914;-74
2023/06/13 06:58:44;;;;;;;4.70;3.10;;;;;;;16.90;73.05;97551.72;1698176;75;892524;-72
2023/06/13 07:01:18;;;;;;;6.65;3.55;;;;;;;16.95;70.83;97546.13;1709538;75;676923;-72
2023/06/13 07:03:48;;;;;;;5.30;2.50;;;;;;;16.46;70.42;97550.94;1697736;75;933081;-76
2023/06/13 07:06:19;;;;;;;3.25;2.15;;;;;;;16.50;71.90;97541.09;1709717;75;680367;-76
2023/06/13 07:08:49;;;;;;;4.70;2.00;;;;;;;16.74;72.88;97542.31;1700247;75;747025;-71
2023/06/13 07:11:19;;;;;;;2.50;1.80;;;;;;;16.43;71.67;97544.44;1708233;75;694866;-72
2023/06/13 07:13:50;;;;;;;4.35;1.80;;;;;;;16.12;72.59;97542.97;1700206;75;756504;-73
2023/06/13 07:16:23;;;;;;;3.00;1.90;;;;;;;16.56;75.35;97541.78;1709637;75;677104;-74
2023/06/13 07:18:54;;;;;;;2.70;1.80;;;;;;;16.86;71.57;97540.97;1699897;75;754416;-71
2023/06/13 07:21:25;;;;;;;1.50;1.10;;;;;;;17.02;73.39;97542.00;1709147;75;673497;-73
2023/06/13 07:23:56;;;;;;;2.45;1.80;;;;;;;16.92;69.75;97538.88;1685442;75;1705576;-71
2023/06/13 07:26:26;;;;;;;2.55;1.65;;;;;;;16.69;70.64;97534.84;1710135;75;678574;-73
2023/06/13 07:28:56;;;;;;;2.55;1.90;;;;;;;16.70;71.76;97525.31;1700787;75;744365;-72
2023/06/13 07:31:29;;;;;;;4.85;1.95;;;;;;;16.84;71.37;97535.22;1709014;75;685830;-74
2023/06/13 07:34:00;;;;;;;2.50;1.70;;;;;;;17.00;68.91;97533.50;1698072;75;877878;-72
2023/06/13 07:36:30;;;;;;;2.60;1.80;;;;;;;17.14;68.90;97529.53;1709586;75;675815;-74
2023/06/13 07:39:00;;;;;;;1.80;1.50;;;;;;;17.24;69.61;97524.38;1698823;75;752113;-74
2023/06/13 07:41:36;;;;;;;1.55;1.40;;;;;;;17.29;71.71;97520.78;1709227;75;709146;-73
2023/06/13 07:44:07;;;;;;;1.35;1.15;;;;;;;17.49;67.53;97519.50;1699180;75;757337;-72
2023/06/13 07:46:40;;;;;;;3.80;1.55;;;;;;;17.55;69.18;97516.63;1708510;75;791366;-74
2023/06/13 07:49:10;;;;;;;2.10;1.70;;;;;;;17.64;66.00;97524.53;1699919;75;747370;-74
2023/06/13 07:51:40;;;;;;;3.30;1.50;;;;;;;17.45;63.88;97525.31;1694261;75;1930254;-74
2023/06/13 07:54:10;;;;;;;2.50;1.85;;;;;;;16.69;65.65;97516.25;1700559;75;751848;-72
2023/06/13 07:56:40;;;;;;;4.40;1.80;;;;;;;17.49;66.30;97524.28;1709975;75;670933;-71
2023/06/13 07:59:11;;;;;;;2.60;1.95;;;;;;;17.24;64.80;97518.84;1699217;75;757864;-73
2023/06/13 08:01:44;;;;;;;3.50;2.20;;;;;;;16.97;67.57;97513.16;1709269;75;680695;-72
2023/06/13 08:04:14;;;;;;;2.25;1.90;;;;;;;17.23;66.40;97509.06;1699578;75;753155;-72
2023/06/13 08:06:44;;;;;;;3.20;1.50;;;;;;;17.66;65.61;97516.47;1709388;75;674842;-75
2023/06/13 08:09:14;;;;;;;4.10;2.15;;;;;;;17.72;65.80;97514.34;1700434;75;752735;-73
2023/06/13 08:11:44;;;;;;;4.95;2.05;;;;;;;17.70;63.85;97519.66;1708801;75;682985;-72
2023/06/13 08:14:15;;;;;;;2.30;1.80;;;;;;;17.63;64.26;97518.28;1699556;75;742407;-74
2023/06/13 08:16:48;;;;;;;2.30;1.70;;;;;;;17.93;64.59;97514.53;1708585;75;679202;-75
2023/06/13 08:19:18;;;;;;;1.70;1.60;;;;;;;17.94;65.61;97515.28;1700031;75;757854;-72
2023/06/13 08:21:50;;;;;;;2.55;1.70;;;;;;;18.17;66.76;97519.16;1709159;75;680858;-74
2023/06/13 08:24:21;;;;;;;2.50;1.60;;;;;;;18.06;63.93;97522.88;1700286;75;751957;-74
2023/06/13 08:26:51;;;;;;;3.40;2.20;;;;;;;17.69;65.10;97520.94;1709307;75;704635;-73
2023/06/13 08:29:23;;;;;;;2.90;1.75;;;;;;;18.29;64.06;97506.59;1700061;75;756290;-75
2023/06/13 08:31:56;;;;;;;4.80;1.80;;;;;;;17.55;64.75;97511.09;1709255;75;682855;-72
2023/06/13 08:34:26;;;;;;;6.10;1.90;;;;;;;18.29;64.67;97503.06;1700494;75;748017;-74
2023/06/13 08:36:56;;;;;;;3.15;2.05;;;;;;;18.36;64.23;97502.44;1709760;75;679263;-75
2023/06/13 08:39:26;;;;;;;3.85;2.00;;;;;;;18.33;65.97;97509.06;1700131;75;747625;-76
2023/06/13 08:41:58;;;;;;;2.40;1.80;;;;;;;18.26;63.79;97506.91;1709560;75;676023;-73
2023/06/13 08:44:30;;;;;;;2.70;2.00;;;;;;;18.69;63.94;97512.13;1701335;75;752505;-72
2023/06/13 08:47:03;;;;;;;1.80;1.30;;;;;;;18.94;62.91;97507.09;1711318;75;679085;-73
2023/06/13 08:49:35;;;;;;;3.00;1.70;;;;;;;19.09;62.50;97494.69;1702289;75;737394;-71
2023/06/13 08:52:11;;;;;;;4.70;1.80;;;;;;;18.77;61.43;97498.38;1695706;75;1942594;-72
2023/06/13 08:54:42;;;;;;;4.85;2.50;;;;;;;18.43;64.68;97489.97;1699903;75;774456;-74
2023/06/13 08:57:15;;;;;;;4.60;2.50;;;;;;;18.69;63.38;97498.28;1710080;75;669792;-77
2023/06/13 08:59:48;;;;;;;6.35;2.50;;;;;;;19.45;63.31;97494.13;1700905;75;740159;-74
2023/06/13 09:02:24;;;;;;;2.45;1.65;;;;;;;19.59;61.09;97493.53;1708664;75;690411;-73
2023/06/13 09:04:55;;;;;;;4.50;2.20;;;;;;;18.81;62.37;97487.72;1700091;75;748425;-75
2023/06/13 09:07:25;;;;;;;2.70;1.90;;;;;;;19.89;62.65;97495.13;1709015;75;680990;-74
2023/06/13 09:09:56;;;;;;;4.20;2.00;;;;;;;19.65;59.97;97485.09;1700163;75;759880;-74
2023/06/13 09:12:28;;;;;;;3.85;2.15;;;;;;;20.27;60.84;97489.06;1709193;75;681389;-74
2023/06/13 09:14:58;;;;;;;2.40;1.80;;;;;;;19.87;60.42;97485.84;1700051;75;765061;-75
2023/06/13 09:17:31;;;;;;;5.00;3.20;;;;;;;18.18;61.16;97481.09;1709394;75;683295;-72
2023/06/13 09:20:03;;;;;;;3.75;3.00;;;;;;;19.50;62.20;97477.34;1700521;75;749737;-75
2023/06/13 09:22:35;;;;;;;3.75;2.40;;;;;;;19.92;60.59;97474.59;1709052;75;678765;-73
2023/06/13 09:25:06;;;;;;;3.60;2.70;;;;;;;19.52;61.69;97474.78;1697538;75;917992;-75
2023/06/13 09:27:36;;;;;;;2.10;1.60;;;;;;;20.34;59.22;97466.16;1709729;75;672631;-76
2023/06/13 09:30:10;;;;;;;3.60;1.45;;;;;;;20.42;58.78;97464.16;1700137;75;757064;-74
2023/06/13 09:32:53;;;;;;;3.80;2.00;;;;;;;20.09;58.53;97465.81;1709371;75;677466;-72
2023/06/13 09:35:23;;;;;;;4.55;2.30;;;;;;;20.12;58.87;97461.94;1700232;75;745272;-74
2023/06/13 09:37:54;;;;;;;2.10;1.60;;;;;;;20.18;56.35;97467.38;1709047;75;674873;-74
2023/06/13 09:40:24;;;;;;;6.80;2.60;;;;;;;19.20;57.55;97458.38;1684816;75;1972771;-73
2023/06/13 09:42:56;;;;;;;6.40;2.70;;;;;;;19.67;59.39;97465.09;1708080;75;675713;-74
2023/06/13 09:45:26;;;;;;;2.15;1.90;;;;;;;19.91;57.66;97452.91;1699507;75;760164;-72
2023/06/13 09:48:00;;;;;;;2.60;2.10;;;;;;;19.86;58.94;97445.44;1708126;75;679714;-74
2023/06/13 09:50:33;;;;;;;2.15;1.70;;;;;;;20.39;60.19;97454.13;1700249;75;753310;-76
2023/06/13 09:53:04;;;;;;;3.60;1.70;;;;;;;20.77;59.02;97450.06;1709017;75;671158;-74
2023/06/13 09:55:35;;;;;;;2.25;1.85;;;;;;;20.79;57.15;97453.03;1701179;75;738634;-76
2023/06/13 09:58:05;;;;;;;1.80;1.60;;;;;;;20.37;57.84;97453.94;1712276;75;686654;-73
2023/06/13 10:00:36;;;;;;;2.30;1.70;;;;;;;20.61;56.15;97438.88;1701406;75;925834;-75
2023/06/13 10:03:09;;;;;;;7.00;2.90;;;;;;;19.63;57.35;97440.44;1709174;75;967696;-74
2023/06/13 10:05:39;;;;;;;2.85;2.30;;;;;;;20.19;55.72;97439.00;1703053;75;747468;-72
2023/06/13 10:08:10;;;;;;;2.20;1.90;;;;;;;20.60;56.22;97433.88;1711912;75;678614;-73
2023/06/13 10:10:40;;;;;;;3.40;1.80;;;;;;;20.42;55.22;97436.34;1691726;75;1861757;-73
2023/06/13 10:13:18;;;;;;;2.80;1.80;;;;;;;20.25;54.92;97438.09;1641496;75;6808146;-72
2023/06/13 10:15:56;;;;;;;1.60;1.45;;;;;;;20.81;55.74;97428.94;1702863;75;752681;-75
2023/06/13 10:18:38;;;;;;;2.80;2.20;;;;;;;20.62;55.61;97432.03;1701400;75;715237;-76
2023/06/13 10:21:12;;;;;;;2.60;1.75;;;;;;;20.93;57.42;97434.91;1707553;75;941794;-73
2023/06/13 10:23:49;;;;;;;3.20;1.85;;;;;;;21.13;56.01;97418.63;1700080;75;848422;-74
2023/06/13 10:26:30;;;;;;;2.30;1.70;;;;;;;21.34;55.92;97416.44;1709871;75;700596;-74
2023/06/13 10:29:45;;;;;;;2.70;1.55;;;;;;;21.33;54.88;97406.56;1685768;75;1976274;-72
2023/06/13 10:32:55;;;;;;;3.00;1.95;;;;;;;21.54;54.02;97394.56;1700050;75;749944;-76
2023/06/13 10:35:56;;;;;;;2.40;1.85;;;;;;;21.59;56.50;97399.94;1700921;75;758063;-75
2023/06/13 10:39:38;;;;;;;3.15;2.20;;;;;;;21.05;54.03;97388.00;1700339;75;744545;-77
2023/06/13 10:42:25;;;;;;;2.70;2.20;;;;;;;21.40;55.22;97386.38;1698637;75;753655;-75
2023/06/13 10:45:04;;;;;;;3.20;2.20;;;;;;;21.58;53.43;97386.56;1700569;75;677049;-75
2023/06/13 10:47:36;;;;;;;3.30;2.10;;;;;;;21.44;52.21;97374.88;1707656;75;777575;-75
2023/06/13 10:50:08;;;;;;;3.50;2.50;;;;;;;21.22;52.03;97374.28;1701580;75;674453;-75
2023/06/13 10:52:45;;;;;;;3.00;2.30;;;;;;;21.75;52.31;97377.66;1708552;75;676334;-75
2023/06/13 10:55:25;;;;;;;2.70;2.10;;;;;;;22.40;55.47;97380.66;1699991;75;740506;-74
2023/06/13 10:57:57;;;;;;;2.90;1.80;;;;;;;21.90;52.98;97383.19;1700382;75;685160;-75
2023/06/13 11:00:33;;;;;;;2.00;1.70;;;;;;;21.77;52.57;97375.03;1709375;75;693091;-77
2023/06/13 11:03:07;;;;;;;2.50;2.00;;;;;;;21.95;52.65;97381.50;1700100;75;780148;-74
2023/06/13 11:05:39;;;;;;;2.40;1.70;;;;;;;21.94;52.36;97377.97;1709134;75;673412;-74
2023/06/13 11:08:18;;;;;;;2.20;1.70;;;;;;;21.88;52.16;97383.72;1700009;75;727428;-74
2023/06/13 11:10:50;;;;;;;1.85;1.55;;;;;;;22.44;52.24;97378.22;1708900;75;756912;-73
2023/06/13 11:13:22;;;;;;;1.75;1.10;;;;;;;22.61;50.82;97371.25;1699981;75;744190;-74
2023/06/13 11:15:56;;;;;;;2.80;1.30;;;;;;;21.94;53.91;97369.63;1709136;75;673200;-72
2023/06/13 11:18:33;;;;;;;2.60;1.75;;;;;;;21.76;51.05;97360.34;1700644;75;744368;-74
2023/06/13 11:21:04;;;;;;;5.10;1.90;;;;;;;21.74;51.05;97359.44;1701678;75;677738;-73
2023/06/13 11:23:57;;;;;;;3.90;1.80;;;;;;;21.89;50.52;97362.94;1709400;75;675248;-74
2023/06/13 11:26:28;;;;;;;1.70;1.50;;;;;;;22.41;51.10;97359.81;1700721;75;745960;-74
2023/06/13 11:28:59;;;;;;;1.95;1.65;;;;;;;23.16;50.37;97348.81;1709565;75;678768;-72
2023/06/13 11:31:32;;;;;;;1.60;1.50;;;;;;;23.08;50.15;97347.38;1700072;75;739167;-75
2023/06/13 11:34:06;;;;;;;1.70;1.40;;;;;;;22.94;49.85;97346.88;1708162;75;671754;-71
2023/06/13 11:36:42;;;;;;;2.05;1.70;;;;;;;22.82;50.33;97354.22;1700035;75;751768;-74
2023/06/13 11:39:18;;;;;;;2.40;1.55;;;;;;;23.08;49.92;97345.31;1699905;75;797767;-72
2023/06/13 11:41:51;;;;;;;1.50;1.10;;;;;;;23.25;48.72;97347.44;1709413;75;675659;-73
2023/06/13 11:44:22;;;;;;;1.70;1.50;;;;;;;22.99;49.18;97345.94;1700182;75;680007;-73
2023/06/13 11:46:52;;;;;;;1.45;1.35;;;;;;;23.52;49.69;97341.25;1708624;75;678872;-72